RJST(METAR)
10/16 19:00
METAR RJST 161000Z 27005KT 9999 FEW050 11/07 Q1024 RMK 2SC050 A3026=
戻る
トップページへ戻る
IMOC Co,.Ltd.